Time;durP1;ratioP1;P1;durP2;ratioP2;P2;SDS_P1;SDS_P2;PMS_P1;PMS_P2;Temp;Humidity;BMP_temperature;BMP_pressure;BME280_temperature;BME280_humidity;BME280_pressure;Samples;Min_cycle;Max_cycle;Signal;HPM_P1;HPM_P2
2021/08/19 00:02:07;;;;;;;;;;;;;;;;;;5133527;28;19923;-74
2021/08/19 00:04:33;;;;;;;;;;;;;;;;;;5132890;28;19923;-74
2021/08/19 00:07:00;;;;;;;;;;;;;;;;;;5133484;28;19947;-74
2021/08/19 00:09:26;;;;;;;;;;;;;;;;;;5132849;28;19924;-74
2021/08/19 00:11:52;;;;;;;;;;;;;;;;;;5133311;28;19927;-74
2021/08/19 00:14:19;;;;;;;;;;;;;;;;;;5132886;28;19934;-74
2021/08/19 00:16:45;;;;;;;;;;;;;;;;;;5133355;28;19923;-74
2021/08/19 00:19:11;;;;;;;;;;;;;;;;;;5133389;27;19930;-74
2021/08/19 00:21:37;;;;;;;;;;;;;;;;;;5136590;27;19924;-74
2021/08/19 00:24:04;;;;;;;;;;;;;;;;;;5136922;27;19930;-74
2021/08/19 00:26:30;;;;;;;;;;;;;;;;;;5136855;27;19930;-74
2021/08/19 00:28:56;;;;;;;;;;;;;;;;;;5136745;27;19923;-74
2021/08/19 00:31:22;;;;;;;;;;;;;;;;;;5137087;27;20293;-73
2021/08/19 00:33:49;;;;;;;;;;;;;;;;;;5137027;27;19930;-74
2021/08/19 00:36:15;;;;;;;;;;;;;;;;;;5136596;27;20370;-74
2021/08/19 00:38:41;;;;;;;;;;;;;;;;;;5136948;27;19932;-74
2021/08/19 00:41:08;;;;;;;;;;;;;;;;;;5136560;27;19953;-74
2021/08/19 00:43:34;;;;;;;;;;;;;;;;;;5136644;27;19931;-74
2021/08/19 00:46:00;;;;;;;;;;;;;;;;;;5136523;27;19923;-74
2021/08/19 00:48:26;;;;;;;;;;;;;;;;;;5136475;27;19931;-74
2021/08/19 00:50:53;;;;;;;;;;;;;;;;;;5136224;27;19927;-74
2021/08/19 00:53:19;;;;;;;;;;;;;;;;;;5136413;27;19927;-74
2021/08/19 00:55:45;;;;;;;;;;;;;;;;;;5136357;27;19930;-74
2021/08/19 00:58:12;;;;;;;;;;;;;;;;;;5136609;27;19923;-74
2021/08/19 01:00:38;;;;;;;;;;;;;;;;;;5135923;27;19923;-74
2021/08/19 01:03:04;;;;;;;;;;;;;;;;;;5136488;27;19923;-74
2021/08/19 01:05:30;;;;;;;;;;;;;;;;;;5135799;27;19923;-74
2021/08/19 01:07:57;;;;;;;;;;;;;;;;;;5136433;27;19946;-74
2021/08/19 01:10:23;;;;;;;;;;;;;;;;;;5135734;27;19935;-74
2021/08/19 01:12:49;;;;;;;;;;;;;;;;;;5136012;27;20309;-74
2021/08/19 01:15:15;;;;;;;;;;;;;;;;;;5136090;27;19931;-74
2021/08/19 01:17:42;;;;;;;;;;;;;;;;;;5136194;27;19923;-74
2021/08/19 01:20:08;;;;;;;;;;;;;;;;;;5135615;27;19930;-74
2021/08/19 01:22:34;;;;;;;;;;;;;;;;;;5135834;27;19923;-74
2021/08/19 01:25:01;;;;;;;;;;;;;;;;;;5135696;27;19923;-74
2021/08/19 01:27:27;;;;;;;;;;;;;;;;;;5135687;27;19923;-74
2021/08/19 01:29:53;;;;;;;;;;;;;;;;;;5135228;27;19932;-74
2021/08/19 01:32:19;;;;;;;;;;;;;;;;;;5135584;27;19940;-74
2021/08/19 01:34:46;;;;;;;;;;;;;;;;;;5135487;27;20463;-74
2021/08/19 01:37:12;;;;;;;;;;;;;;;;;;5135753;27;19931;-74
2021/08/19 01:39:38;;;;;;;;;;;;;;;;;;5135575;27;19973;-74
2021/08/19 01:42:05;;;;;;;;;;;;;;;;;;5135472;27;19924;-74
2021/08/19 01:44:31;;;;;;;;;;;;;;;;;;5135430;27;19924;-74
2021/08/19 01:46:57;;;;;;;;;;;;;;;;;;5135330;27;19923;-74
2021/08/19 01:49:23;;;;;;;;;;;;;;;;;;5135223;27;20000;-74
2021/08/19 01:51:50;;;;;;;;;;;;;;;;;;5135165;27;19930;-74
2021/08/19 01:54:16;;;;;;;;;;;;;;;;;;5135370;27;19924;-74
2021/08/19 01:56:42;;;;;;;;;;;;;;;;;;5135032;27;19923;-74
2021/08/19 01:59:09;;;;;;;;;;;;;;;;;;5135731;27;19930;-74
2021/08/19 02:01:35;;;;;;;;;;;;;;;;;;5134698;27;19923;-74
2021/08/19 02:04:01;;;;;;;;;;;;;;;;;;5135277;27;19929;-74
2021/08/19 02:06:27;;;;;;;;;;;;;;;;;;5134601;27;19930;-74
2021/08/19 02:08:54;;;;;;;;;;;;;;;;;;5135147;27;19927;-74
2021/08/19 02:11:20;;;;;;;;;;;;;;;;;;5134448;27;19935;-74
2021/08/19 02:13:47;;;;;;;;;;;;;;;;;;5135145;27;19930;-74
2021/08/19 02:16:13;;;;;;;;;;;;;;;;;;5134638;27;19931;-75
2021/08/19 02:18:39;;;;;;;;;;;;;;;;;;5134695;27;19930;-75
2021/08/19 02:21:05;;;;;;;;;;;;;;;;;;5134414;27;20373;-75
2021/08/19 02:23:32;;;;;;;;;;;;;;;;;;5134669;27;19923;-74
2021/08/19 02:25:58;;;;;;;;;;;;;;;;;;5134551;27;19924;-75
2021/08/19 02:28:24;;;;;;;;;;;;;;;;;;5134426;27;19927;-75
2021/08/19 02:30:50;;;;;;;;;;;;;;;;;;5134338;27;19923;-75
2021/08/19 02:33:17;;;;;;;;;;;;;;;;;;5134122;27;19946;-74
2021/08/19 02:35:43;;;;;;;;;;;;;;;;;;5134675;27;19924;-75
2021/08/19 02:38:09;;;;;;;;;;;;;;;;;;5134266;27;19923;-75
2021/08/19 02:40:36;;;;;;;;;;;;;;;;;;5134291;27;19924;-75
2021/08/19 02:43:02;;;;;;;;;;;;;;;;;;5133622;27;19983;-75
2021/08/19 02:45:28;;;;;;;;;;;;;;;;;;5134259;27;19924;-75
2021/08/19 02:47:55;;;;;;;;;;;;;;;;;;5134095;27;20385;-75
2021/08/19 02:50:21;;;;;;;;;;;;;;;;;;5134082;27;19923;-75
2021/08/19 02:52:47;;;;;;;;;;;;;;;;;;5134076;27;19930;-75
2021/08/19 02:55:14;;;;;;;;;;;;;;;;;;5134220;27;20169;-75
2021/08/19 02:57:40;;;;;;;;;;;;;;;;;;5133592;27;19930;-75
2021/08/19 03:00:06;;;;;;;;;;;;;;;;;;5134230;27;19929;-75
2021/08/19 03:02:32;;;;;;;;;;;;;;;;;;5133616;27;19923;-75
2021/08/19 03:04:59;;;;;;;;;;;;;;;;;;5134138;27;19947;-75
2021/08/19 03:07:25;;;;;;;;;;;;;;;;;;5133362;27;19928;-75
2021/08/19 03:09:51;;;;;;;;;;;;;;;;;;5134084;27;19923;-75
2021/08/19 03:12:18;;;;;;;;;;;;;;;;;;5133427;27;19924;-75
2021/08/19 03:14:44;;;;;;;;;;;;;;;;;;5133977;27;19923;-75
2021/08/19 03:17:10;;;;;;;;;;;;;;;;;;5133850;27;19923;-75
2021/08/19 03:19:36;;;;;;;;;;;;;;;;;;5133119;27;20396;-74
2021/08/19 03:22:03;;;;;;;;;;;;;;;;;;5134144;27;19924;-75
2021/08/19 03:24:29;;;;;;;;;;;;;;;;;;5133353;27;20408;-75
2021/08/19 03:26:55;;;;;;;;;;;;;;;;;;5133528;27;19935;-75
2021/08/19 03:29:22;;;;;;;;;;;;;;;;;;5133635;27;19923;-75
2021/08/19 03:31:48;;;;;;;;;;;;;;;;;;5133229;27;19930;-75
2021/08/19 03:34:14;;;;;;;;;;;;;;;;;;5133800;27;19923;-75
2021/08/19 03:36:40;;;;;;;;;;;;;;;;;;5133207;28;20399;-75
2021/08/19 03:39:07;;;;;;;;;;;;;;;;;;5134050;28;19931;-75
2021/08/19 03:41:33;;;;;;;;;;;;;;;;;;5133571;28;20018;-74
2021/08/19 03:43:59;;;;;;;;;;;;;;;;;;5133576;28;20296;-74
2021/08/19 03:46:26;;;;;;;;;;;;;;;;;;5133407;28;20108;-75
2021/08/19 03:48:52;;;;;;;;;;;;;;;;;;5133626;28;19969;-74
2021/08/19 03:51:18;;;;;;;;;;;;;;;;;;5132961;28;20373;-74
2021/08/19 03:53:49;;;;;;;;;;;;;;;;;;5135212;27;19930;-74
2021/08/19 03:56:15;;;;;;;;;;;;;;;;;;5137651;27;19924;-74
2021/08/19 03:58:41;;;;;;;;;;;;;;;;;;5137749;27;19924;-74
2021/08/19 04:01:08;;;;;;;;;;;;;;;;;;5137344;27;20285;-74
2021/08/19 04:03:34;;;;;;;;;;;;;;;;;;5137317;27;19924;-74
2021/08/19 04:06:00;;;;;;;;;;;;;;;;;;5137269;27;20300;-75
2021/08/19 04:08:26;;;;;;;;;;;;;;;;;;5137189;27;19928;-74
2021/08/19 04:10:53;;;;;;;;;;;;;;;;;;5137453;27;20258;-74
2021/08/19 04:13:19;;;;;;;;;;;;;;;;;;5136836;27;19935;-74
2021/08/19 04:15:45;;;;;;;;;;;;;;;;;;5137389;27;20285;-74
2021/08/19 04:18:13;;;;;;;;;;;;;;;;;;5137336;27;19924;-74
2021/08/19 04:20:39;;;;;;;;;;;;;;;;;;5136379;27;19924;-74
2021/08/19 04:23:06;;;;;;;;;;;;;;;;;;5137174;27;19924;-74
2021/08/19 04:25:32;;;;;;;;;;;;;;;;;;5136677;27;19954;-74
2021/08/19 04:27:58;;;;;;;;;;;;;;;;;;5137139;27;19923;-74
2021/08/19 04:30:25;;;;;;;;;;;;;;;;;;5136450;27;19924;-74
2021/08/19 04:32:51;;;;;;;;;;;;;;;;;;5136985;27;19997;-74
2021/08/19 04:35:17;;;;;;;;;;;;;;;;;;5136445;27;19935;-74
2021/08/19 04:37:44;;;;;;;;;;;;;;;;;;5136560;27;20459;-74
2021/08/19 04:40:10;;;;;;;;;;;;;;;;;;5136832;27;19923;-74
2021/08/19 04:42:36;;;;;;;;;;;;;;;;;;5136250;27;20385;-74
2021/08/19 04:45:03;;;;;;;;;;;;;;;;;;5136770;27;19923;-75
2021/08/19 04:47:29;;;;;;;;;;;;;;;;;;5136257;27;19931;-75
2021/08/19 04:49:55;;;;;;;;;;;;;;;;;;5136738;27;19927;-75
2021/08/19 04:52:22;;;;;;;;;;;;;;;;;;5135948;27;19930;-75
2021/08/19 04:54:48;;;;;;;;;;;;;;;;;;5136501;27;19933;-74
2021/08/19 04:57:14;;;;;;;;;;;;;;;;;;5136232;27;19924;-74
2021/08/19 04:59:40;;;;;;;;;;;;;;;;;;5136304;27;19923;-74
2021/08/19 05:02:07;;;;;;;;;;;;;;;;;;5136175;27;19930;-75
2021/08/19 05:04:33;;;;;;;;;;;;;;;;;;5135892;27;19923;-76
2021/08/19 05:06:59;;;;;;;;;;;;;;;;;;5135423;27;19930;-76
2021/08/19 05:09:26;;;;;;;;;;;;;;;;;;5136110;27;19931;-76
2021/08/19 05:11:52;;;;;;;;;;;;;;;;;;5135791;27;19923;-76
2021/08/19 05:14:18;;;;;;;;;;;;;;;;;;5136005;27;19927;-76
2021/08/19 05:16:44;;;;;;;;;;;;;;;;;;5135776;27;19931;-75
2021/08/19 05:19:11;;;;;;;;;;;;;;;;;;5136396;27;19923;-75
2021/08/19 05:21:39;;;;;;;;;;;;;;;;;;5135568;27;19927;-76
2021/08/19 05:24:05;;;;;;;;;;;;;;;;;;5135806;27;19923;-76
2021/08/19 05:26:32;;;;;;;;;;;;;;;;;;5135787;27;19924;-76
2021/08/19 05:28:58;;;;;;;;;;;;;;;;;;5135755;27;19934;-76
2021/08/19 05:31:24;;;;;;;;;;;;;;;;;;5135547;27;19923;-76
2021/08/19 05:33:50;;;;;;;;;;;;;;;;;;5135616;27;19924;-76
2021/08/19 05:36:17;;;;;;;;;;;;;;;;;;5135549;27;19923;-76
2021/08/19 05:38:43;;;;;;;;;;;;;;;;;;5135840;27;19924;-76
2021/08/19 05:41:09;;;;;;;;;;;;;;;;;;5135359;27;20319;-75
2021/08/19 05:43:36;;;;;;;;;;;;;;;;;;5135462;27;19924;-75
2021/08/19 05:46:02;;;;;;;;;;;;;;;;;;5135606;27;20018;-75
2021/08/19 05:48:28;;;;;;;;;;;;;;;;;;5134932;27;19935;-76
2021/08/19 05:50:55;;;;;;;;;;;;;;;;;;5135427;27;19923;-76
2021/08/19 05:53:21;;;;;;;;;;;;;;;;;;5135169;27;19924;-74
2021/08/19 05:55:47;;;;;;;;;;;;;;;;;;5135460;27;19946;-74
2021/08/19 05:58:14;;;;;;;;;;;;;;;;;;5135119;27;19923;-74
2021/08/19 06:00:40;;;;;;;;;;;;;;;;;;5134788;27;20381;-74
2021/08/19 06:03:06;;;;;;;;;;;;;;;;;;5135128;27;19931;-74
2021/08/19 06:05:33;;;;;;;;;;;;;;;;;;5134707;27;19923;-74
2021/08/19 06:07:59;;;;;;;;;;;;;;;;;;5135205;27;19930;-74
2021/08/19 06:10:25;;;;;;;;;;;;;;;;;;5134646;27;19930;-75
2021/08/19 06:12:52;;;;;;;;;;;;;;;;;;5135045;27;19923;-75
2021/08/19 06:15:18;;;;;;;;;;;;;;;;;;5134452;27;19930;-75
2021/08/19 06:17:44;;;;;;;;;;;;;;;;;;5134926;27;19923;-75
2021/08/19 06:20:10;;;;;;;;;;;;;;;;;;5134416;27;19931;-75
2021/08/19 06:22:37;;;;;;;;;;;;;;;;;;5134622;27;19927;-75
2021/08/19 06:25:03;;;;;;;;;;;;;;;;;;5134591;27;19924;-75
2021/08/19 06:27:29;;;;;;;;;;;;;;;;;;5134516;27;19930;-75
2021/08/19 06:29:55;;;;;;;;;;;;;;;;;;5134412;27;19930;-75
2021/08/19 06:32:22;;;;;;;;;;;;;;;;;;5134424;27;19930;-75
2021/08/19 06:34:48;;;;;;;;;;;;;;;;;;5134313;27;19923;-75
2021/08/19 06:37:14;;;;;;;;;;;;;;;;;;5134625;27;19931;-75
2021/08/19 06:39:41;;;;;;;;;;;;;;;;;;5133877;27;19931;-75
2021/08/19 06:42:07;;;;;;;;;;;;;;;;;;5134553;27;19923;-75
2021/08/19 06:44:33;;;;;;;;;;;;;;;;;;5133975;27;19930;-75
2021/08/19 06:47:00;;;;;;;;;;;;;;;;;;5134380;27;19924;-75
2021/08/19 06:49:26;;;;;;;;;;;;;;;;;;5134253;27;19970;-76
2021/08/19 06:51:52;;;;;;;;;;;;;;;;;;5133967;27;19923;-76
2021/08/19 06:54:18;;;;;;;;;;;;;;;;;;5134032;27;19935;-76
2021/08/19 06:56:45;;;;;;;;;;;;;;;;;;5133985;27;19923;-76
2021/08/19 06:59:11;;;;;;;;;;;;;;;;;;5134199;27;19931;-76
2021/08/19 07:01:37;;;;;;;;;;;;;;;;;;5133673;27;19923;-76
2021/08/19 07:04:03;;;;;;;;;;;;;;;;;;5134070;27;19923;-76
2021/08/19 07:06:30;;;;;;;;;;;;;;;;;;5133567;27;19931;-76
2021/08/19 07:08:56;;;;;;;;;;;;;;;;;;5134066;27;19923;-76
2021/08/19 07:11:22;;;;;;;;;;;;;;;;;;5133466;27;19930;-76
2021/08/19 07:13:50;;;;;;;;;;;;;;;;;;5134028;27;19950;-76
2021/08/19 07:16:16;;;;;;;;;;;;;;;;;;5133996;27;19930;-76
2021/08/19 07:18:42;;;;;;;;;;;;;;;;;;5133574;27;19923;-76
2021/08/19 07:21:08;;;;;;;;;;;;;;;;;;5133309;27;19927;-76
2021/08/19 07:23:35;;;;;;;;;;;;;;;;;;5133438;27;19930;-76
2021/08/19 07:26:01;;;;;;;;;;;;;;;;;;5133879;27;19930;-76
2021/08/19 07:28:27;;;;;;;;;;;;;;;;;;5132830;27;19931;-76
2021/08/19 07:30:53;;;;;;;;;;;;;;;;;;5133832;27;19924;-76
2021/08/19 07:33:20;;;;;;;;;;;;;;;;;;5133532;27;20180;-76
2021/08/19 07:35:48;;;;;;;;;;;;;;;;;;5133321;27;20308;-76
2021/08/19 07:38:18;;;;;;;;;;;;;;;;;;5133711;28;19974;-76
2021/08/19 07:40:44;;;;;;;;;;;;;;;;;;5133300;28;20000;-76
2021/08/19 07:43:10;;;;;;;;;;;;;;;;;;5133706;28;19930;-76
2021/08/19 07:45:36;;;;;;;;;;;;;;;;;;5133071;28;19927;-76
2021/08/19 07:48:03;;;;;;;;;;;;;;;;;;5133637;28;19923;-76
2021/08/19 07:50:29;;;;;;;;;;;;;;;;;;5133356;28;19927;-76
2021/08/19 07:52:55;;;;;;;;;;;;;;;;;;5133595;28;19923;-76
2021/08/19 07:55:21;;;;;;;;;;;;;;;;;;5133060;28;19923;-76
2021/08/19 07:57:48;;;;;;;;;;;;;;;;;;5133561;28;19923;-76
2021/08/19 08:00:14;;;;;;;;;;;;;;;;;;5133279;28;19923;-76
2021/08/19 08:02:40;;;;;;;;;;;;;;;;;;5133205;28;19931;-76
2021/08/19 08:05:07;;;;;;;;;;;;;;;;;;5133093;28;19924;-76
2021/08/19 08:07:33;;;;;;;;;;;;;;;;;;5133284;28;19923;-76
2021/08/19 08:10:00;;;;;;;;;;;;;;;;;;5133063;28;19927;-74
2021/08/19 08:12:26;;;;;;;;;;;;;;;;;;5133087;28;19923;-74
2021/08/19 08:14:52;;;;;;;;;;;;;;;;;;5133013;28;19924;-74
2021/08/19 08:17:19;;;;;;;;;;;;;;;;;;5133157;28;19928;-74
2021/08/19 08:19:45;;;;;;;;;;;;;;;;;;5133028;28;19966;-74
2021/08/19 08:22:12;;;;;;;;;;;;;;;;;;5133059;28;19931;-74
2021/08/19 08:24:39;;;;;;;;;;;;;;;;;;5133136;28;20177;-74
2021/08/19 08:27:05;;;;;;;;;;;;;;;;;;5132987;28;20022;-74
2021/08/19 08:29:32;;;;;;;;;;;;;;;;;;5132949;28;19924;-74
2021/08/19 08:32:01;;;;;;;;;;;;;;;;;;5132749;28;19924;-74
2021/08/19 08:34:27;;;;;;;;;;;;;;;;;;5132963;28;19984;-74
2021/08/19 08:36:54;;;;;;;;;;;;;;;;;;5132859;28;19923;-74
2021/08/19 08:39:20;;;;;;;;;;;;;;;;;;5132847;27;19928;-74
2021/08/19 08:41:47;;;;;;;;;;;;;;;;;;5135601;27;19924;-75
2021/08/19 08:44:13;;;;;;;;;;;;;;;;;;5136904;27;19930;-75
2021/08/19 08:46:39;;;;;;;;;;;;;;;;;;5136077;27;19923;-75
2021/08/19 08:49:05;;;;;;;;;;;;;;;;;;5136842;27;19923;-75
2021/08/19 08:51:32;;;;;;;;;;;;;;;;;;5136209;27;19923;-75
2021/08/19 08:53:58;;;;;;;;;;;;;;;;;;5136651;27;19931;-75
2021/08/19 08:56:24;;;;;;;;;;;;;;;;;;5136010;27;19923;-74
2021/08/19 08:58:51;;;;;;;;;;;;;;;;;;5136512;27;19924;-75
2021/08/19 09:01:17;;;;;;;;;;;;;;;;;;5136051;27;19923;-75
2021/08/19 09:03:43;;;;;;;;;;;;;;;;;;5136647;27;19930;-76
2021/08/19 09:06:09;;;;;;;;;;;;;;;;;;5136123;27;19931;-76
2021/08/19 09:08:36;;;;;;;;;;;;;;;;;;5136211;27;19930;-76
2021/08/19 09:11:02;;;;;;;;;;;;;;;;;;5136100;27;19923;-76
2021/08/19 09:13:28;;;;;;;;;;;;;;;;;;5135991;27;19924;-76
2021/08/19 09:15:55;;;;;;;;;;;;;;;;;;5135991;27;20365;-76
2021/08/19 09:18:21;;;;;;;;;;;;;;;;;;5135904;27;19928;-76
2021/08/19 09:20:47;;;;;;;;;;;;;;;;;;5135669;27;19930;-75
2021/08/19 09:23:13;;;;;;;;;;;;;;;;;;5136213;27;19931;-76
2021/08/19 09:25:40;;;;;;;;;;;;;;;;;;5135584;27;19928;-75
2021/08/19 09:28:06;;;;;;;;;;;;;;;;;;5135898;27;19923;-75
2021/08/19 09:30:32;;;;;;;;;;;;;;;;;;5135498;27;19930;-76
2021/08/19 09:32:58;;;;;;;;;;;;;;;;;;5135945;27;20040;-76
2021/08/19 09:35:25;;;;;;;;;;;;;;;;;;5135258;27;19923;-76
2021/08/19 09:37:51;;;;;;;;;;;;;;;;;;5135900;27;19931;-76
2021/08/19 09:40:17;;;;;;;;;;;;;;;;;;5135205;27;19923;-76
2021/08/19 09:42:44;;;;;;;;;;;;;;;;;;5135764;27;19924;-76
2021/08/19 09:45:10;;;;;;;;;;;;;;;;;;5135730;27;19928;-75
2021/08/19 09:47:36;;;;;;;;;;;;;;;;;;5135453;27;20411;-76
2021/08/19 09:50:02;;;;;;;;;;;;;;;;;;5135182;27;19924;-76
2021/08/19 09:52:29;;;;;;;;;;;;;;;;;;5134480;27;20289;-76
2021/08/19 09:54:55;;;;;;;;;;;;;;;;;;5135501;27;19924;-76
2021/08/19 09:57:22;;;;;;;;;;;;;;;;;;5134903;27;20000;-75
2021/08/19 09:59:48;;;;;;;;;;;;;;;;;;5135333;27;19924;-75
2021/08/19 10:02:14;;;;;;;;;;;;;;;;;;5134975;27;19929;-75
2021/08/19 10:04:40;;;;;;;;;;;;;;;;;;5135044;27;19927;-75
2021/08/19 10:07:07;;;;;;;;;;;;;;;;;;5134954;27;20377;-75
2021/08/19 10:09:33;;;;;;;;;;;;;;;;;;5134930;27;19923;-75
2021/08/19 10:11:59;;;;;;;;;;;;;;;;;;5134806;27;19930;-75
2021/08/19 10:14:26;;;;;;;;;;;;;;;;;;5134917;27;19923;-75
2021/08/19 10:16:52;;;;;;;;;;;;;;;;;;5134673;27;19923;-75
2021/08/19 10:19:18;;;;;;;;;;;;;;;;;;5134673;27;19927;-75
2021/08/19 10:21:44;;;;;;;;;;;;;;;;;;5134573;27;19924;-75
2021/08/19 10:24:11;;;;;;;;;;;;;;;;;;5134866;27;19928;-75
2021/08/19 10:26:37;;;;;;;;;;;;;;;;;;5134386;27;19927;-75
2021/08/19 10:29:04;;;;;;;;;;;;;;;;;;5134877;27;19924;-75
2021/08/19 10:31:30;;;;;;;;;;;;;;;;;;5134497;27;19931;-75
2021/08/19 10:33:56;;;;;;;;;;;;;;;;;;5134421;27;19924;-75
2021/08/19 10:36:23;;;;;;;;;;;;;;;;;;5134407;27;20005;-75
2021/08/19 10:38:49;;;;;;;;;;;;;;;;;;5134654;27;19924;-75
2021/08/19 10:41:15;;;;;;;;;;;;;;;;;;5134609;27;19924;-76
2021/08/19 10:43:41;;;;;;;;;;;;;;;;;;5134417;27;19924;-75
2021/08/19 10:46:08;;;;;;;;;;;;;;;;;;5134692;27;19923;-75
2021/08/19 10:48:34;;;;;;;;;;;;;;;;;;5133933;27;19923;-75
2021/08/19 10:51:00;;;;;;;;;;;;;;;;;;5134427;27;19927;-75
2021/08/19 10:53:27;;;;;;;;;;;;;;;;;;5133745;27;19923;-75
2021/08/19 10:55:53;;;;;;;;;;;;;;;;;;5133949;27;20297;-75
2021/08/19 10:58:20;;;;;;;;;;;;;;;;;;5133714;27;20473;-75
2021/08/19 11:00:46;;;;;;;;;;;;;;;;;;5134305;27;19930;-75
2021/08/19 11:03:12;;;;;;;;;;;;;;;;;;5133256;27;19923;-75
2021/08/19 11:05:39;;;;;;;;;;;;;;;;;;5133973;27;19923;-76
2021/08/19 11:08:05;;;;;;;;;;;;;;;;;;5133838;27;19924;-76
2021/08/19 11:10:31;;;;;;;;;;;;;;;;;;5134886;27;19928;-75
2021/08/19 11:12:57;;;;;;;;;;;;;;;;;;5133711;27;19931;-75
2021/08/19 11:15:24;;;;;;;;;;;;;;;;;;5133753;27;19935;-76
2021/08/19 11:17:50;;;;;;;;;;;;;;;;;;5134054;27;20290;-75
2021/08/19 11:20:16;;;;;;;;;;;;;;;;;;5133278;27;19927;-75
2021/08/19 11:22:43;;;;;;;;;;;;;;;;;;5133857;27;19930;-75
2021/08/19 11:25:12;;;;;;;;;;;;;;;;;;5133206;27;20073;-76
2021/08/19 11:27:38;;;;;;;;;;;;;;;;;;5133570;27;19923;-76
2021/08/19 11:30:04;;;;;;;;;;;;;;;;;;5133507;27;19923;-76
2021/08/19 11:32:31;;;;;;;;;;;;;;;;;;5133486;27;19923;-75
2021/08/19 11:34:57;;;;;;;;;;;;;;;;;;5133394;27;19930;-75
2021/08/19 11:37:23;;;;;;;;;;;;;;;;;;5133515;27;19923;-76
2021/08/19 11:39:50;;;;;;;;;;;;;;;;;;5133366;28;19923;-75
2021/08/19 11:42:16;;;;;;;;;;;;;;;;;;5133654;28;19933;-75
2021/08/19 11:44:42;;;;;;;;;;;;;;;;;;5133392;28;19923;-75
2021/08/19 11:47:11;;;;;;;;;;;;;;;;;;5133357;28;20335;-75
2021/08/19 11:49:37;;;;;;;;;;;;;;;;;;5133063;28;19931;-75
2021/08/19 11:52:03;;;;;;;;;;;;;;;;;;5133317;28;20270;-75
2021/08/19 11:54:30;;;;;;;;;;;;;;;;;;5132903;28;19923;-75
2021/08/19 11:56:56;;;;;;;;;;;;;;;;;;5133596;28;19952;-75
2021/08/19 11:59:22;;;;;;;;;;;;;;;;;;5133265;28;19999;-75
2021/08/19 12:01:49;;;;;;;;;;;;;;;;;;5133224;28;19923;-75
2021/08/19 12:04:15;;;;;;;;;;;;;;;;;;5133500;28;19924;-75
2021/08/19 12:06:41;;;;;;;;;;;;;;;;;;5132940;28;19927;-75
2021/08/19 12:09:08;;;;;;;;;;;;;;;;;;5133087;28;20022;-75
2021/08/19 12:11:34;;;;;;;;;;;;;;;;;;5133139;28;19923;-75
2021/08/19 12:14:01;;;;;;;;;;;;;;;;;;5133058;27;19931;-75
2021/08/19 12:16:27;;;;;;;;;;;;;;;;;;5137078;27;19923;-75
2021/08/19 12:18:53;;;;;;;;;;;;;;;;;;5137146;27;20377;-75
2021/08/19 12:21:20;;;;;;;;;;;;;;;;;;5136611;27;19923;-75
2021/08/19 12:23:46;;;;;;;;;;;;;;;;;;5137289;27;19950;-75
2021/08/19 12:26:12;;;;;;;;;;;;;;;;;;5136856;27;19923;-75
2021/08/19 12:28:39;;;;;;;;;;;;;;;;;;5136949;27;19924;-76
2021/08/19 12:31:07;;;;;;;;;;;;;;;;;;5137061;27;20408;-75
2021/08/19 12:33:34;;;;;;;;;;;;;;;;;;5136828;27;19924;-75
2021/08/19 12:36:00;;;;;;;;;;;;;;;;;;5136682;27;19931;-75
2021/08/19 12:38:26;;;;;;;;;;;;;;;;;;5136831;27;19928;-75
2021/08/19 12:40:52;;;;;;;;;;;;;;;;;;5136646;27;19923;-75
2021/08/19 12:43:19;;;;;;;;;;;;;;;;;;5136695;27;19923;-75
2021/08/19 12:45:45;;;;;;;;;;;;;;;;;;5136424;27;19923;-75
2021/08/19 12:48:12;;;;;;;;;;;;;;;;;;5136848;27;19933;-76
2021/08/19 12:50:39;;;;;;;;;;;;;;;;;;5136266;27;19924;-75
2021/08/19 12:53:05;;;;;;;;;;;;;;;;;;5136686;27;19928;-75
2021/08/19 12:55:31;;;;;;;;;;;;;;;;;;5136353;27;19992;-75
2021/08/19 12:57:59;;;;;;;;;;;;;;;;;;5136378;27;20380;-75
2021/08/19 13:00:25;;;;;;;;;;;;;;;;;;5136241;27;19935;-75
2021/08/19 13:02:51;;;;;;;;;;;;;;;;;;5136468;27;19927;-75
2021/08/19 13:05:18;;;;;;;;;;;;;;;;;;5135996;27;20305;-75
2021/08/19 13:07:44;;;;;;;;;;;;;;;;;;5136441;27;19923;-75
2021/08/19 13:10:10;;;;;;;;;;;;;;;;;;5136057;27;20403;-75
2021/08/19 13:12:36;;;;;;;;;;;;;;;;;;5136151;27;20274;-75
2021/08/19 13:15:04;;;;;;;;;;;;;;;;;;5136175;27;19924;-75
2021/08/19 13:17:30;;;;;;;;;;;;;;;;;;5135652;27;19969;-75
2021/08/19 13:19:56;;;;;;;;;;;;;;;;;;5135950;27;19923;-75
2021/08/19 13:22:22;;;;;;;;;;;;;;;;;;5135549;27;20399;-75
2021/08/19 13:24:49;;;;;;;;;;;;;;;;;;5136077;27;19923;-75
2021/08/19 13:27:15;;;;;;;;;;;;;;;;;;5135001;27;20365;-75
2021/08/19 13:29:41;;;;;;;;;;;;;;;;;;5135819;27;20131;-75
2021/08/19 13:32:08;;;;;;;;;;;;;;;;;;5135621;27;19930;-75
2021/08/19 13:34:34;;;;;;;;;;;;;;;;;;5135597;27;19923;-75
2021/08/19 13:37:00;;;;;;;;;;;;;;;;;;5135571;27;19930;-75
2021/08/19 13:39:27;;;;;;;;;;;;;;;;;;5135533;27;19923;-75
2021/08/19 13:41:53;;;;;;;;;;;;;;;;;;5136083;27;19969;-75
2021/08/19 13:44:19;;;;;;;;;;;;;;;;;;5135051;27;19930;-75
2021/08/19 13:46:46;;;;;;;;;;;;;;;;;;5135736;27;19931;-75
2021/08/19 13:49:12;;;;;;;;;;;;;;;;;;5135300;27;19927;-75
2021/08/19 13:51:38;;;;;;;;;;;;;;;;;;5135398;27;19930;-75
2021/08/19 13:54:04;;;;;;;;;;;;;;;;;;5135098;27;19931;-75
2021/08/19 13:56:31;;;;;;;;;;;;;;;;;;5135160;27;19923;-76
2021/08/19 13:58:57;;;;;;;;;;;;;;;;;;5135133;27;19923;-75
2021/08/19 14:01:26;;;;;;;;;;;;;;;;;;5135104;27;19924;-75
2021/08/19 14:03:52;;;;;;;;;;;;;;;;;;5135016;27;20388;-75
2021/08/19 14:06:18;;;;;;;;;;;;;;;;;;5134928;27;19924;-75
2021/08/19 14:08:44;;;;;;;;;;;;;;;;;;5134949;27;19927;-75
2021/08/19 14:11:11;;;;;;;;;;;;;;;;;;5135060;27;19923;-75
2021/08/19 14:13:37;;;;;;;;;;;;;;;;;;5134523;27;19935;-75
2021/08/19 14:16:03;;;;;;;;;;;;;;;;;;5135028;27;19923;-75
2021/08/19 14:18:29;;;;;;;;;;;;;;;;;;5134521;27;19924;-76
2021/08/19 14:20:56;;;;;;;;;;;;;;;;;;5134446;27;19923;-75
2021/08/19 14:23:22;;;;;;;;;;;;;;;;;;5134380;27;20274;-75
2021/08/19 14:25:48;;;;;;;;;;;;;;;;;;5134873;27;19930;-76
2021/08/19 14:28:15;;;;;;;;;;;;;;;;;;5134494;27;20405;-75
2021/08/19 14:30:41;;;;;;;;;;;;;;;;;;5134465;27;19923;-75
2021/08/19 14:33:07;;;;;;;;;;;;;;;;;;5134435;27;20387;-75
2021/08/19 14:35:33;;;;;;;;;;;;;;;;;;5133994;27;19931;-75
2021/08/19 14:38:01;;;;;;;;;;;;;;;;;;5133668;27;19924;-75
2021/08/19 14:40:28;;;;;;;;;;;;;;;;;;5134445;27;19923;-75
2021/08/19 14:42:54;;;;;;;;;;;;;;;;;;5134200;27;19931;-75
2021/08/19 14:45:20;;;;;;;;;;;;;;;;;;5134327;27;19950;-75
2021/08/19 14:47:47;;;;;;;;;;;;;;;;;;5134104;27;19929;-75
2021/08/19 14:50:13;;;;;;;;;;;;;;;;;;5134029;27;19923;-75
2021/08/19 14:52:39;;;;;;;;;;;;;;;;;;5134190;27;19930;-75
2021/08/19 14:55:05;;;;;;;;;;;;;;;;;;5133972;27;20361;-75
2021/08/19 14:57:32;;;;;;;;;;;;;;;;;;5133990;27;19930;-75
2021/08/19 14:59:58;;;;;;;;;;;;;;;;;;5133917;27;19930;-75
2021/08/19 15:02:24;;;;;;;;;;;;;;;;;;5134006;27;19924;-75
2021/08/19 15:04:50;;;;;;;;;;;;;;;;;;5133836;27;19923;-75
2021/08/19 15:07:17;;;;;;;;;;;;;;;;;;5134073;27;19923;-75
2021/08/19 15:09:43;;;;;;;;;;;;;;;;;;5133876;27;19923;-75
2021/08/19 15:12:09;;;;;;;;;;;;;;;;;;5134134;27;19930;-76
2021/08/19 15:14:36;;;;;;;;;;;;;;;;;;5133668;27;19931;-75
2021/08/19 15:17:02;;;;;;;;;;;;;;;;;;5133909;27;20282;-75
2021/08/19 15:19:28;;;;;;;;;;;;;;;;;;5133438;27;19927;-74
2021/08/19 15:21:55;;;;;;;;;;;;;;;;;;5133594;27;20385;-75
2021/08/19 15:24:21;;;;;;;;;;;;;;;;;;5133717;27;19927;-75
2021/08/19 15:26:47;;;;;;;;;;;;;;;;;;5133541;27;19923;-75
2021/08/19 15:29:14;;;;;;;;;;;;;;;;;;5133863;27;19930;-75
2021/08/19 15:31:40;;;;;;;;;;;;;;;;;;5134195;27;19923;-75
2021/08/19 15:34:06;;;;;;;;;;;;;;;;;;5133650;27;19924;-75
2021/08/19 15:36:32;;;;;;;;;;;;;;;;;;5133102;27;20416;-75
2021/08/19 15:38:59;;;;;;;;;;;;;;;;;;5133737;28;19923;-75
2021/08/19 15:41:25;;;;;;;;;;;;;;;;;;5133145;28;19924;-76
2021/08/19 15:43:51;;;;;;;;;;;;;;;;;;5133686;28;20022;-75
2021/08/19 15:46:18;;;;;;;;;;;;;;;;;;5133159;28;20370;-75
2021/08/19 15:48:44;;;;;;;;;;;;;;;;;;5133481;27;19931;-75
2021/08/19 15:51:10;;;;;;;;;;;;;;;;;;5137286;27;20373;-75
2021/08/19 15:53:37;;;;;;;;;;;;;;;;;;5137569;27;19924;-75
2021/08/19 15:56:03;;;;;;;;;;;;;;;;;;5137516;27;19949;-76
2021/08/19 15:58:30;;;;;;;;;;;;;;;;;;5137532;27;19924;-75
2021/08/19 16:00:56;;;;;;;;;;;;;;;;;;5137341;27;19930;-75
2021/08/19 16:03:22;;;;;;;;;;;;;;;;;;5137477;27;19923;-75
2021/08/19 16:05:48;;;;;;;;;;;;;;;;;;5137371;27;19923;-75
2021/08/19 16:08:15;;;;;;;;;;;;;;;;;;5137657;27;19923;-76
2021/08/19 16:10:41;;;;;;;;;;;;;;;;;;5136947;27;19931;-75
2021/08/19 16:13:07;;;;;;;;;;;;;;;;;;5137808;27;19938;-75
2021/08/19 16:15:33;;;;;;;;;;;;;;;;;;5136769;27;19924;-75
2021/08/19 16:18:00;;;;;;;;;;;;;;;;;;5137486;27;19923;-75
2021/08/19 16:20:26;;;;;;;;;;;;;;;;;;5136618;27;20374;-75
2021/08/19 16:22:52;;;;;;;;;;;;;;;;;;5137280;27;19928;-75
2021/08/19 16:25:21;;;;;;;;;;;;;;;;;;5136750;27;20372;-75
2021/08/19 16:27:48;;;;;;;;;;;;;;;;;;5137073;27;19971;-76
2021/08/19 16:30:14;;;;;;;;;;;;;;;;;;5136970;27;19930;-75
2021/08/19 16:32:40;;;;;;;;;;;;;;;;;;5136987;27;19924;-75
2021/08/19 16:35:06;;;;;;;;;;;;;;;;;;5136720;27;19937;-75
2021/08/19 16:37:33;;;;;;;;;;;;;;;;;;5136790;27;19927;-75
2021/08/19 16:39:59;;;;;;;;;;;;;;;;;;5136748;27;19931;-75